createdAt,value
2023-05-16T00:01:16.064Z,32.57
2023-05-16T00:03:46.457Z,32.56
2023-05-16T00:06:18.180Z,32.56
2023-05-16T00:08:48.497Z,32.57
2023-05-16T00:11:20.773Z,32.63
2023-05-16T00:13:51.423Z,32.59
2023-05-16T00:16:24.049Z,32.58
2023-05-16T00:18:55.223Z,32.60
2023-05-16T00:21:25.200Z,32.60
2023-05-16T00:23:55.471Z,32.59
2023-05-16T00:26:25.698Z,32.58
2023-05-16T00:28:56.049Z,32.60
2023-05-16T00:31:27.066Z,32.63
2023-05-16T00:33:57.714Z,32.62
2023-05-16T00:36:28.478Z,32.60
2023-05-16T00:38:58.857Z,32.58
2023-05-16T00:41:30.347Z,32.59
2023-05-16T00:44:00.633Z,32.59
2023-05-16T00:46:30.855Z,32.64
2023-05-16T00:49:01.752Z,32.63
2023-05-16T00:51:32.893Z,32.62
2023-05-16T00:54:04.741Z,32.63
2023-05-16T00:56:36.029Z,32.66
2023-05-16T00:59:06.704Z,32.68
2023-05-16T01:01:39.221Z,32.69
2023-05-16T01:04:10.413Z,32.68
2023-05-16T01:06:40.426Z,32.68
2023-05-16T01:09:10.839Z,32.64
2023-05-16T01:12:06.132Z,32.69
2023-05-16T01:15:00.905Z,32.68
2023-05-16T01:17:46.530Z,32.67
2023-05-16T01:20:31.480Z,32.73
2023-05-16T01:23:08.313Z,32.68
2023-05-16T01:26:04.998Z,32.70
2023-05-16T01:28:39.313Z,32.74
2023-05-16T01:31:09.632Z,32.73
2023-05-16T01:33:39.999Z,32.71
2023-05-16T01:36:22.397Z,32.70
2023-05-16T01:39:31.068Z,32.73
2023-05-16T01:42:10.431Z,32.74
2023-05-16T01:44:49.040Z,32.72
2023-05-16T01:47:22.212Z,32.74
2023-05-16T01:50:16.728Z,32.77
2023-05-16T01:53:06.575Z,32.74
2023-05-16T01:55:54.777Z,32.73
2023-05-16T01:58:30.743Z,32.73
2023-05-16T02:01:06.229Z,32.72
2023-05-16T02:03:37.473Z,32.74
2023-05-16T02:06:07.763Z,32.75
2023-05-16T02:08:38.294Z,32.75
2023-05-16T02:11:08.623Z,32.77
2023-05-16T02:13:39.016Z,32.77
2023-05-16T02:16:09.545Z,32.77
2023-05-16T02:18:39.743Z,32.77
2023-05-16T02:21:10.184Z,32.80
2023-05-16T02:23:42.021Z,32.81
2023-05-16T02:26:14.242Z,32.82
2023-05-16T02:28:44.655Z,32.82
2023-05-16T02:31:14.881Z,32.81
2023-05-16T02:33:45.550Z,32.84
2023-05-16T02:36:16.582Z,32.81
2023-05-16T02:38:46.844Z,32.83
2023-05-16T02:41:17.314Z,32.82
2023-05-16T02:43:47.756Z,32.83
2023-05-16T02:46:36.091Z,32.85
2023-05-16T02:49:07.360Z,32.85
2023-05-16T02:51:37.808Z,32.84
2023-05-16T02:54:10.649Z,32.80
2023-05-16T02:56:41.198Z,32.82
2023-05-16T02:59:11.678Z,32.85
2023-05-16T03:01:42.058Z,32.86
2023-05-16T03:04:12.635Z,32.84
2023-05-16T03:06:43.174Z,32.86
2023-05-16T03:09:13.521Z,32.87
2023-05-16T03:11:47.403Z,32.86
2023-05-16T03:14:17.875Z,32.88
2023-05-16T03:16:49.654Z,32.89
2023-05-16T03:19:20.219Z,32.90
2023-05-16T03:21:50.482Z,33.01
2023-05-16T03:24:21.499Z,32.99
2023-05-16T03:26:52.485Z,33.03
2023-05-16T03:29:24.426Z,32.98
2023-05-16T03:31:54.656Z,32.95
2023-05-16T03:34:26.173Z,32.95
2023-05-16T03:36:56.796Z,32.95
2023-05-16T03:39:27.267Z,33.01
2023-05-16T03:41:59.595Z,33.02
2023-05-16T03:44:29.986Z,33.03
2023-05-16T03:47:00.461Z,33.03
2023-05-16T03:49:30.943Z,33.01
2023-05-16T03:52:01.754Z,33.10
2023-05-16T03:54:32.571Z,33.07
2023-05-16T03:57:02.845Z,33.04
2023-05-16T03:59:33.549Z,33.07
2023-05-16T04:02:04.166Z,33.12
2023-05-16T04:04:34.558Z,33.09
2023-05-16T04:07:05.171Z,33.06
2023-05-16T04:09:35.450Z,33.06
2023-05-16T04:12:05.787Z,33.07
2023-05-16T04:14:37.019Z,33.08
2023-05-16T04:17:07.611Z,33.08
2023-05-16T04:19:38.253Z,33.07
2023-05-16T04:22:08.557Z,33.10
2023-05-16T04:24:38.998Z,33.16
2023-05-16T04:27:11.453Z,33.17
2023-05-16T04:29:41.701Z,33.15
2023-05-16T04:32:12.151Z,33.18
2023-05-16T04:34:45.139Z,33.18
2023-05-16T04:37:15.710Z,33.16
2023-05-16T04:39:46.077Z,33.17
2023-05-16T04:42:16.752Z,33.18
2023-05-16T04:44:47.232Z,33.22
2023-05-16T04:47:17.796Z,33.15
2023-05-16T04:49:48.192Z,33.22
2023-05-16T04:52:18.924Z,33.23
2023-05-16T04:54:49.569Z,33.20
2023-05-16T04:57:21.008Z,33.22
2023-05-16T04:59:51.335Z,33.29
2023-05-16T05:02:21.923Z,33.28
2023-05-16T05:04:53.096Z,33.27
2023-05-16T05:07:25.278Z,33.27
2023-05-16T05:09:58.349Z,33.28
2023-05-16T05:12:30.158Z,33.28
2023-05-16T05:15:00.491Z,33.27
2023-05-16T05:17:32.324Z,33.24
2023-05-16T05:20:03.273Z,33.23
2023-05-16T05:22:33.538Z,33.23
2023-05-16T05:25:03.805Z,33.27
2023-05-16T05:27:34.367Z,33.23
2023-05-16T05:30:05.674Z,33.25
2023-05-16T05:32:36.124Z,33.27
2023-05-16T05:35:06.927Z,33.26
2023-05-16T05:37:37.889Z,33.30
2023-05-16T05:40:09.489Z,33.32
2023-05-16T05:42:39.905Z,33.30
2023-05-16T05:45:10.698Z,33.30
2023-05-16T05:47:41.511Z,33.33
2023-05-16T05:50:14.021Z,33.31
2023-05-16T05:52:44.370Z,33.32
2023-05-16T05:55:14.911Z,33.32
2023-05-16T05:57:45.222Z,33.33
2023-05-16T06:00:17.281Z,33.32
2023-05-16T06:02:47.787Z,33.29
2023-05-16T06:05:18.282Z,33.37
2023-05-16T06:07:53.837Z,33.37
2023-05-16T06:10:25.963Z,33.38
2023-05-16T06:12:56.389Z,33.44
2023-05-16T06:15:29.411Z,33.45
2023-05-16T06:18:00.542Z,33.46
2023-05-16T06:20:31.044Z,33.46
2023-05-16T06:23:02.482Z,33.49
2023-05-16T06:25:34.440Z,33.50
2023-05-16T06:28:04.768Z,33.47
2023-05-16T06:30:36.189Z,33.48
2023-05-16T06:33:06.464Z,33.51
2023-05-16T06:35:36.729Z,33.50
2023-05-16T06:38:07.234Z,33.52
2023-05-16T06:40:37.616Z,33.52
2023-05-16T06:43:07.981Z,33.52
2023-05-16T06:45:38.879Z,33.52
2023-05-16T06:48:10.853Z,33.53
2023-05-16T06:50:41.154Z,33.52
2023-05-16T06:53:11.925Z,33.51
2023-05-16T06:55:43.056Z,33.51
2023-05-16T06:58:13.920Z,33.53
2023-05-16T07:00:44.625Z,33.54
2023-05-16T07:03:18.914Z,33.47
2023-05-16T07:05:50.054Z,33.50
2023-05-16T07:08:20.847Z,33.49
2023-05-16T07:10:52.780Z,33.57
2023-05-16T07:13:23.507Z,33.55
2023-05-16T07:15:54.068Z,33.59
2023-05-16T07:18:24.385Z,33.61
2023-05-16T07:20:54.954Z,33.60
2023-05-16T07:23:25.270Z,33.62
2023-05-16T07:25:56.337Z,33.59
2023-05-16T07:28:26.517Z,33.64
2023-05-16T07:30:57.652Z,33.63
2023-05-16T07:33:29.827Z,33.64
2023-05-16T07:36:14.810Z,33.62
2023-05-16T07:38:47.161Z,33.63
2023-05-16T07:41:20.837Z,33.64
2023-05-16T07:43:51.239Z,33.64
2023-05-16T07:46:21.713Z,33.62
2023-05-16T07:48:52.179Z,33.65
2023-05-16T07:51:24.235Z,33.67
2023-05-16T07:53:54.796Z,33.68
2023-05-16T07:56:26.169Z,33.68
2023-05-16T07:58:57.192Z,33.68
2023-05-16T08:01:27.958Z,33.69
2023-05-16T08:03:58.498Z,33.68
2023-05-16T08:06:29.005Z,33.69
2023-05-16T08:09:00.385Z,33.75
2023-05-16T08:11:31.437Z,33.77
2023-05-16T08:14:01.783Z,33.79
2023-05-16T08:16:32.272Z,33.79
2023-05-16T08:19:02.689Z,33.78
2023-05-16T08:21:34.280Z,33.78
2023-05-16T08:24:04.779Z,33.80
2023-05-16T08:26:35.861Z,33.74
2023-05-16T08:29:08.035Z,33.77
2023-05-16T08:31:38.576Z,33.78
2023-05-16T08:34:09.250Z,33.77
2023-05-16T08:36:40.513Z,33.76
2023-05-16T08:39:13.606Z,33.77
2023-05-16T08:41:44.290Z,33.78
2023-05-16T08:44:15.982Z,33.79
2023-05-16T08:46:50.583Z,33.81
2023-05-16T08:49:21.502Z,33.79
2023-05-16T08:51:54.296Z,33.76
2023-05-16T08:54:26.811Z,33.77
2023-05-16T08:57:01.006Z,33.77
2023-05-16T08:59:32.253Z,33.77
2023-05-16T09:02:03.276Z,33.81
2023-05-16T09:04:34.074Z,33.77
2023-05-16T09:07:04.624Z,33.78
2023-05-16T09:09:35.700Z,33.79
2023-05-16T09:12:09.069Z,33.78
2023-05-16T09:14:40.175Z,33.83
2023-05-16T09:17:12.611Z,33.83
2023-05-16T09:19:44.700Z,33.82
2023-05-16T09:22:16.658Z,33.80
2023-05-16T09:24:48.716Z,33.80
2023-05-16T09:27:19.420Z,33.82
2023-05-16T09:29:54.855Z,33.78
2023-05-16T09:32:26.614Z,33.80
2023-05-16T09:35:00.926Z,33.82
2023-05-16T09:37:31.315Z,33.79
2023-05-16T09:40:01.636Z,33.81
2023-05-16T09:42:32.050Z,33.82
2023-05-16T09:45:06.054Z,33.82
2023-05-16T09:47:38.128Z,33.83
2023-05-16T09:50:09.531Z,33.82
2023-05-16T09:52:40.921Z,33.84
2023-05-16T09:55:12.753Z,33.80
2023-05-16T09:57:43.211Z,33.81
2023-05-16T10:00:14.949Z,33.82
2023-05-16T10:02:46.155Z,33.85
2023-05-16T10:05:16.558Z,33.83
2023-05-16T10:07:48.650Z,33.82
2023-05-16T10:10:20.130Z,33.81
2023-05-16T10:12:51.593Z,33.80
2023-05-16T10:15:24.720Z,33.81
2023-05-16T10:17:59.843Z,33.78
2023-05-16T10:20:30.657Z,33.78
2023-05-16T10:23:01.652Z,33.76
2023-05-16T10:25:43.716Z,33.75
2023-05-16T10:28:15.335Z,33.75
2023-05-16T10:30:48.484Z,33.76
2023-05-16T10:33:22.350Z,33.75
2023-05-16T10:35:53.519Z,33.76
2023-05-16T10:38:28.197Z,33.76
2023-05-16T10:40:59.352Z,33.80
2023-05-16T10:43:32.934Z,33.78
2023-05-16T10:46:10.362Z,33.78
2023-05-16T10:48:42.534Z,33.80
2023-05-16T10:51:41.154Z,33.79
2023-05-16T10:54:16.123Z,33.80
2023-05-16T10:56:47.504Z,33.83
2023-05-16T10:59:29.542Z,33.85
2023-05-16T11:02:00.021Z,33.83
2023-05-16T11:04:48.984Z,33.85
2023-05-16T11:07:21.472Z,33.86
2023-05-16T11:10:10.558Z,33.84
2023-05-16T11:12:45.008Z,33.86
2023-05-16T11:15:23.816Z,33.86
2023-05-16T11:18:07.245Z,33.87
2023-05-16T11:20:42.993Z,33.86
2023-05-16T11:23:19.524Z,33.86
2023-05-16T11:25:56.522Z,33.87
2023-05-16T11:28:30.662Z,33.89
2023-05-16T11:31:02.367Z,33.86
2023-05-16T11:33:37.816Z,33.86
2023-05-16T11:36:16.353Z,33.85
2023-05-16T11:38:47.048Z,33.86
2023-05-16T11:41:20.124Z,33.83
2023-05-16T11:43:50.502Z,33.84
2023-05-16T11:46:21.080Z,33.82
2023-05-16T11:48:51.789Z,33.82
2023-05-16T11:51:23.181Z,33.81
2023-05-16T11:53:53.817Z,33.81
2023-05-16T11:56:27.297Z,33.80
2023-05-16T11:58:57.824Z,33.83
2023-05-16T12:01:28.823Z,33.83
2023-05-16T12:04:03.815Z,33.80
2023-05-16T12:06:34.793Z,33.79
2023-05-16T12:09:12.411Z,33.80
2023-05-16T12:11:47.434Z,33.80
2023-05-16T12:14:18.409Z,33.79
2023-05-16T12:16:49.352Z,33.80
2023-05-16T12:19:20.133Z,33.79
2023-05-16T12:21:50.829Z,33.77
2023-05-16T13:23:50.942Z,33.27
2023-05-16T13:26:21.193Z,33.29
2023-05-16T13:28:55.876Z,33.32
2023-05-16T13:31:26.228Z,33.39
2023-05-16T13:33:56.583Z,33.46
2023-05-16T13:36:26.956Z,33.46
2023-05-16T13:38:57.994Z,33.60
2023-05-16T13:41:28.983Z,33.63
2023-05-16T13:43:59.437Z,33.73
2023-05-16T13:46:30.845Z,33.71
2023-05-16T13:49:01.991Z,33.75
2023-05-16T13:51:31.979Z,33.73
2023-05-16T13:54:02.218Z,33.77
2023-05-16T13:56:32.499Z,33.73
2023-05-16T13:59:06.861Z,33.80
2023-05-16T14:01:38.790Z,33.79
2023-05-16T14:04:09.266Z,33.74
2023-05-16T14:06:42.421Z,33.67
2023-05-16T14:09:13.205Z,33.67
2023-05-16T14:11:44.409Z,33.69
2023-05-16T14:14:14.416Z,33.66
2023-05-16T14:16:48.516Z,33.60
2023-05-16T14:19:19.684Z,33.73
2023-05-16T14:21:50.332Z,33.63
2023-05-16T14:24:21.428Z,33.74
2023-05-16T14:26:59.770Z,33.69
2023-05-16T14:29:30.321Z,33.66
2023-05-16T14:32:02.225Z,33.65
2023-05-16T14:34:32.666Z,33.61
2023-05-16T14:37:03.215Z,33.64
2023-05-16T14:39:33.497Z,33.61
2023-05-16T14:42:04.585Z,33.57
2023-05-16T14:44:36.088Z,33.53
2023-05-16T14:47:06.789Z,33.49
2023-05-16T14:49:37.441Z,33.53
2023-05-16T14:52:08.778Z,33.55
2023-05-16T14:54:42.529Z,33.58
2023-05-16T14:57:13.034Z,33.64
2023-05-16T14:59:43.413Z,33.64
2023-05-16T15:02:13.936Z,33.64
2023-05-16T15:04:44.395Z,33.61
2023-05-16T15:07:14.790Z,33.65
2023-05-16T15:09:45.213Z,33.65
2023-05-16T15:12:15.487Z,33.58
2023-05-16T15:14:45.861Z,33.57
2023-05-16T15:17:16.151Z,33.56
2023-05-16T15:19:46.313Z,33.56
2023-05-16T15:22:16.464Z,33.60
2023-05-16T15:24:46.800Z,33.65
2023-05-16T15:27:17.245Z,33.68
2023-05-16T15:29:47.793Z,33.67
2023-05-16T15:32:20.511Z,33.66
2023-05-16T15:34:50.918Z,33.66
2023-05-16T15:37:21.220Z,33.60
2023-05-16T15:39:52.100Z,33.58
2023-05-16T15:42:23.716Z,33.57
2023-05-16T15:44:54.433Z,33.56
2023-05-16T15:47:24.853Z,33.59
2023-05-16T15:49:57.751Z,33.59
2023-05-16T15:52:28.461Z,33.58
2023-05-16T15:54:58.802Z,33.57
2023-05-16T15:57:29.267Z,33.56
2023-05-16T15:59:59.492Z,33.59
2023-05-16T16:02:29.851Z,33.57
2023-05-16T16:05:00.343Z,33.55
2023-05-16T16:07:30.859Z,33.58
2023-05-16T16:10:01.966Z,33.58
2023-05-16T16:12:32.816Z,33.55
2023-05-16T16:15:04.685Z,33.58
2023-05-16T16:17:35.743Z,33.56
2023-05-16T16:20:05.794Z,33.55
2023-05-16T16:22:35.944Z,33.56
2023-05-16T16:25:06.652Z,33.55
2023-05-16T16:27:36.948Z,33.57
2023-05-16T16:30:08.391Z,33.57
2023-05-16T16:32:38.991Z,33.58
2023-05-16T16:35:09.846Z,33.59
2023-05-16T16:37:40.645Z,33.59
2023-05-16T16:40:12.644Z,33.54
2023-05-16T16:42:43.146Z,33.54
2023-05-16T16:45:13.469Z,33.53
2023-05-16T16:47:44.012Z,33.53
2023-05-16T16:50:15.114Z,33.53
2023-05-16T16:52:45.404Z,33.53
2023-05-16T16:55:17.176Z,33.53
2023-05-16T16:57:47.675Z,33.54
2023-05-16T17:00:18.505Z,33.52
2023-05-16T17:02:49.241Z,33.53
2023-05-16T17:05:19.770Z,33.51
2023-05-16T17:07:50.010Z,33.51
2023-05-16T17:10:21.090Z,33.52
2023-05-16T17:12:54.809Z,33.53
2023-05-16T17:15:25.283Z,33.51
2023-05-16T17:17:55.826Z,33.52
2023-05-16T17:20:26.764Z,33.50
2023-05-16T17:22:57.214Z,33.51
2023-05-16T17:25:27.679Z,33.52
2023-05-16T17:27:58.738Z,33.50
2023-05-16T17:30:29.483Z,33.48
2023-05-16T17:33:00.159Z,33.48
2023-05-16T17:35:30.776Z,33.50
2023-05-16T17:38:01.666Z,33.45
2023-05-16T17:40:31.847Z,33.47
2023-05-16T17:43:02.143Z,33.45
2023-05-16T17:45:32.983Z,33.45
2023-05-16T17:48:03.555Z,33.44
2023-05-16T17:50:34.937Z,33.48
2023-05-16T17:53:04.740Z,33.47
2023-05-16T17:55:38.166Z,33.46
2023-05-16T17:58:09.404Z,33.47
2023-05-16T18:00:40.780Z,33.47
2023-05-16T18:03:11.166Z,33.43
2023-05-16T18:05:42.224Z,33.45
2023-05-16T18:08:12.624Z,33.45
2023-05-16T18:10:51.528Z,33.48
2023-05-16T18:13:23.096Z,33.46
2023-05-16T18:15:53.697Z,33.44
2023-05-16T18:18:24.501Z,33.44
2023-05-16T18:20:55.071Z,33.45
2023-05-16T18:23:25.390Z,33.45
2023-05-16T18:25:56.454Z,33.43
2023-05-16T18:28:26.918Z,33.41
2023-05-16T18:30:57.521Z,33.40
2023-05-16T18:33:27.992Z,33.43
2023-05-16T18:35:58.539Z,33.41
2023-05-16T18:38:33.259Z,33.42
2023-05-16T18:41:04.630Z,33.42
2023-05-16T18:43:37.839Z,33.38
2023-05-16T18:46:08.764Z,33.40
2023-05-16T18:48:39.140Z,33.42
2023-05-16T18:51:09.736Z,33.40
2023-05-16T18:53:40.086Z,33.40
2023-05-16T18:56:10.532Z,33.40
2023-05-16T18:58:40.905Z,33.38
2023-05-16T19:01:11.699Z,33.39
2023-05-16T19:03:42.798Z,33.37
2023-05-16T19:06:13.900Z,33.36
2023-05-16T19:08:48.095Z,33.34
2023-05-16T19:11:20.247Z,33.35
2023-05-16T19:13:50.727Z,33.33
2023-05-16T19:16:21.142Z,33.34
2023-05-16T19:18:51.645Z,33.33
2023-05-16T19:21:22.081Z,33.32
2023-05-16T19:23:52.363Z,33.32
2023-05-16T19:26:22.602Z,33.32
2023-05-16T19:28:52.921Z,33.32
2023-05-16T19:31:23.257Z,33.30
2023-05-16T19:33:53.669Z,33.30
2023-05-16T19:36:23.984Z,33.30
2023-05-16T19:38:54.292Z,33.30
2023-05-16T19:41:25.866Z,33.28
2023-05-16T19:43:56.166Z,33.30
2023-05-16T19:46:26.876Z,33.27
2023-05-16T19:48:57.496Z,33.27
2023-05-16T19:51:40.756Z,33.23
2023-05-16T19:54:12.185Z,33.24
2023-05-16T19:56:42.576Z,33.21
2023-05-16T19:59:12.944Z,33.24
2023-05-16T20:01:43.333Z,33.23
2023-05-16T20:04:14.084Z,33.23
2023-05-16T20:06:45.111Z,33.24
2023-05-16T20:09:15.543Z,33.24
2023-05-16T20:11:45.948Z,33.20
2023-05-16T20:14:16.286Z,33.18
2023-05-16T20:16:46.544Z,33.22
2023-05-16T20:19:18.336Z,33.19
2023-05-16T20:21:48.896Z,33.17
2023-05-16T20:24:20.090Z,33.19
2023-05-16T20:26:49.999Z,33.18
2023-05-16T20:29:20.368Z,33.17
2023-05-16T20:31:51.610Z,33.17
2023-05-16T20:34:22.120Z,33.16
2023-05-16T20:36:55.475Z,33.14
2023-05-16T20:39:25.922Z,33.13
2023-05-16T20:41:56.307Z,33.14
2023-05-16T20:44:26.653Z,33.13
2023-05-16T20:46:56.997Z,33.10
2023-05-16T20:49:27.416Z,33.13
2023-05-16T20:51:57.783Z,33.13
2023-05-16T20:54:28.239Z,33.09
2023-05-16T20:56:58.859Z,33.12
2023-05-16T20:59:30.967Z,33.11
2023-05-16T21:02:01.443Z,33.14
2023-05-16T21:04:31.832Z,33.13
2023-05-16T21:07:02.186Z,33.12
2023-05-16T21:09:35.204Z,33.09
2023-05-16T21:12:05.752Z,33.07
2023-05-16T21:14:36.205Z,33.05
2023-05-16T21:17:07.051Z,33.04
2023-05-16T21:19:38.004Z,33.05
2023-05-16T21:22:08.935Z,33.07
2023-05-16T21:24:39.979Z,33.06
2023-05-16T21:27:10.420Z,33.02
2023-05-16T21:29:41.294Z,33.06
2023-05-16T21:32:15.449Z,33.04
2023-05-16T21:34:46.924Z,33.07
2023-05-16T21:37:17.672Z,33.04
2023-05-16T21:39:48.210Z,33.08
2023-05-16T21:42:18.587Z,33.06
2023-05-16T21:44:49.108Z,33.05
2023-05-16T21:47:19.643Z,33.03
2023-05-16T21:49:50.618Z,33.06
2023-05-16T21:52:21.083Z,33.10
2023-05-16T21:54:54.279Z,33.06
2023-05-16T21:57:24.742Z,33.05
2023-05-16T21:59:56.592Z,33.01
2023-05-16T22:02:28.519Z,33.05
2023-05-16T22:04:59.145Z,33.02
2023-05-16T22:07:33.910Z,33.03
2023-05-16T22:10:05.551Z,33.02
2023-05-16T22:12:36.452Z,33.07
2023-05-16T22:15:09.398Z,32.99
2023-05-16T22:17:40.049Z,33.00
2023-05-16T22:20:11.214Z,32.98
2023-05-16T22:22:42.931Z,32.96
2023-05-16T22:25:13.639Z,33.06
2023-05-16T22:27:44.064Z,33.04
2023-05-16T22:30:15.198Z,32.97
2023-05-16T22:32:48.003Z,32.98
2023-05-16T22:35:20.776Z,32.96
2023-05-16T22:37:53.020Z,33.03
2023-05-16T22:40:23.518Z,32.99
2023-05-16T22:42:54.135Z,32.94
2023-05-16T22:45:25.084Z,33.01
2023-05-16T22:47:55.638Z,33.00
2023-05-16T22:50:26.111Z,32.93
2023-05-16T22:52:56.570Z,32.92
2023-05-16T22:55:27.084Z,32.97
2023-05-16T22:57:59.601Z,32.92
2023-05-16T23:01:42.233Z,32.97
2023-05-16T23:04:12.720Z,32.89
2023-05-16T23:06:43.202Z,32.80
2023-05-16T23:09:14.089Z,32.86
2023-05-16T23:11:44.388Z,32.78
2023-05-16T23:14:15.072Z,32.77
2023-05-16T23:16:45.638Z,32.71
2023-05-16T23:19:16.344Z,32.73
2023-05-16T23:21:46.982Z,32.76
2023-05-16T23:24:17.629Z,32.80
2023-05-16T23:26:47.858Z,32.77
2023-05-16T23:29:19.066Z,32.79
2023-05-16T23:31:49.074Z,32.78
2023-05-16T23:34:19.272Z,32.80
2023-05-16T23:36:49.759Z,32.82
2023-05-16T23:39:20.519Z,32.81
2023-05-16T23:41:50.868Z,32.80
2023-05-16T23:44:22.237Z,32.83
2023-05-16T23:46:52.827Z,32.82
2023-05-16T23:49:23.273Z,32.83
2023-05-16T23:51:57.941Z,32.84
2023-05-16T23:54:29.397Z,32.85
2023-05-16T23:56:59.828Z,32.84
2023-05-16T23:59:30.447Z,32.82
